sensor_id;sensor_type;location;lat;lon;timestamp;P1;durP1;ratioP1;P2;durP2;ratioP2
65037;SDS011;51605;47.040;15.294;2022-07-04T00:00:30;0.75;;;0.75;;
65037;SDS011;51605;47.040;15.294;2022-07-04T00:02:56;1.05;;;0.70;;
65037;SDS011;51605;47.040;15.294;2022-07-04T00:05:21;0.80;;;0.80;;
65037;SDS011;51605;47.040;15.294;2022-07-04T00:07:47;0.60;;;0.60;;
65037;SDS011;51605;47.040;15.294;2022-07-04T00:10:17;0.70;;;0.70;;
65037;SDS011;51605;47.040;15.294;2022-07-04T00:12:45;1.35;;;0.70;;
65037;SDS011;51605;47.040;15.294;2022-07-04T00:15:11;0.80;;;0.80;;
65037;SDS011;51605;47.040;15.294;2022-07-04T00:17:38;0.70;;;0.70;;
65037;SDS011;51605;47.040;15.294;2022-07-04T00:20:05;0.90;;;0.80;;
65037;SDS011;51605;47.040;15.294;2022-07-04T00:22:32;0.77;;;0.77;;
65037;SDS011;51605;47.040;15.294;2022-07-04T00:24:58;0.70;;;0.70;;
65037;SDS011;51605;47.040;15.294;2022-07-04T00:27:24;0.97;;;0.90;;
65037;SDS011;51605;47.040;15.294;2022-07-04T00:29:50;2.47;;;0.70;;
65037;SDS011;51605;47.040;15.294;2022-07-04T00:32:16;1.00;;;0.90;;
65037;SDS011;51605;47.040;15.294;2022-07-04T00:34:42;1.90;;;0.80;;
65037;SDS011;51605;47.040;15.294;2022-07-04T00:37:07;0.67;;;0.67;;
65037;SDS011;51605;47.040;15.294;2022-07-04T00:39:33;1.20;;;0.80;;
65037;SDS011;51605;47.040;15.294;2022-07-04T00:41:59;0.60;;;0.60;;
65037;SDS011;51605;47.040;15.294;2022-07-04T00:44:25;1.05;;;0.80;;
65037;SDS011;51605;47.040;15.294;2022-07-04T00:46:51;1.10;;;0.80;;
65037;SDS011;51605;47.040;15.294;2022-07-04T00:49:17;0.80;;;0.80;;
65037;SDS011;51605;47.040;15.294;2022-07-04T00:51:44;0.77;;;0.77;;
65037;SDS011;51605;47.040;15.294;2022-07-04T00:54:12;0.98;;;0.80;;
65037;SDS011;51605;47.040;15.294;2022-07-04T00:56:39;0.82;;;0.80;;
65037;SDS011;51605;47.040;15.294;2022-07-04T00:59:06;1.05;;;0.80;;
65037;SDS011;51605;47.040;15.294;2022-07-04T01:01:32;1.07;;;0.90;;
65037;SDS011;51605;47.040;15.294;2022-07-04T01:04:00;0.98;;;0.90;;
65037;SDS011;51605;47.040;15.294;2022-07-04T01:06:27;0.75;;;0.75;;
65037;SDS011;51605;47.040;15.294;2022-07-04T01:08:53;0.70;;;0.70;;
65037;SDS011;51605;47.040;15.294;2022-07-04T01:11:19;0.90;;;0.73;;
65037;SDS011;51605;47.040;15.294;2022-07-04T01:13:45;0.80;;;0.80;;
65037;SDS011;51605;47.040;15.294;2022-07-04T01:16:11;0.83;;;0.80;;
65037;SDS011;51605;47.040;15.294;2022-07-04T01:18:37;1.27;;;1.00;;
65037;SDS011;51605;47.040;15.294;2022-07-04T01:21:04;0.80;;;0.80;;
65037;SDS011;51605;47.040;15.294;2022-07-04T01:23:31;1.48;;;0.90;;
65037;SDS011;51605;47.040;15.294;2022-07-04T01:25:57;0.70;;;0.70;;
65037;SDS011;51605;47.040;15.294;2022-07-04T01:28:23;0.70;;;0.70;;
65037;SDS011;51605;47.040;15.294;2022-07-04T01:33:16;0.82;;;0.80;;
65037;SDS011;51605;47.040;15.294;2022-07-04T01:35:44;0.73;;;0.73;;
65037;SDS011;51605;47.040;15.294;2022-07-04T01:38:11;0.77;;;0.70;;
65037;SDS011;51605;47.040;15.294;2022-07-04T01:40:37;0.93;;;0.87;;
65037;SDS011;51605;47.040;15.294;2022-07-04T01:43:02;0.80;;;0.80;;
65037;SDS011;51605;47.040;15.294;2022-07-04T01:45:28;0.87;;;0.80;;
65037;SDS011;51605;47.040;15.294;2022-07-04T01:47:54;0.70;;;0.70;;
65037;SDS011;51605;47.040;15.294;2022-07-04T01:50:20;0.90;;;0.80;;
65037;SDS011;51605;47.040;15.294;2022-07-04T01:52:46;0.70;;;0.70;;
65037;SDS011;51605;47.040;15.294;2022-07-04T01:55:11;0.70;;;0.70;;
65037;SDS011;51605;47.040;15.294;2022-07-04T01:57:38;0.80;;;0.80;;
65037;SDS011;51605;47.040;15.294;2022-07-04T02:00:07;0.70;;;0.70;;
65037;SDS011;51605;47.040;15.294;2022-07-04T02:02:54;1.00;;;0.90;;
65037;SDS011;51605;47.040;15.294;2022-07-04T02:07:47;0.77;;;0.77;;
65037;SDS011;51605;47.040;15.294;2022-07-04T02:10:13;0.90;;;0.80;;
65037;SDS011;51605;47.040;15.294;2022-07-04T02:12:39;0.70;;;0.70;;
65037;SDS011;51605;47.040;15.294;2022-07-04T02:15:24;0.80;;;0.80;;
65037;SDS011;51605;47.040;15.294;2022-07-04T02:17:49;1.17;;;0.90;;
65037;SDS011;51605;47.040;15.294;2022-07-04T02:20:15;0.80;;;0.80;;
65037;SDS011;51605;47.040;15.294;2022-07-04T02:22:41;0.90;;;0.90;;
65037;SDS011;51605;47.040;15.294;2022-07-04T02:25:08;0.93;;;0.80;;
65037;SDS011;51605;47.040;15.294;2022-07-04T02:27:33;1.73;;;1.00;;
65037;SDS011;51605;47.040;15.294;2022-07-04T02:29:59;0.70;;;0.70;;
65037;SDS011;51605;47.040;15.294;2022-07-04T02:32:25;0.93;;;0.90;;
65037;SDS011;51605;47.040;15.294;2022-07-04T02:34:50;0.73;;;0.73;;
65037;SDS011;51605;47.040;15.294;2022-07-04T02:37:16;0.83;;;0.83;;
65037;SDS011;51605;47.040;15.294;2022-07-04T02:39:42;0.80;;;0.80;;
65037;SDS011;51605;47.040;15.294;2022-07-04T02:42:08;1.03;;;0.80;;
65037;SDS011;51605;47.040;15.294;2022-07-04T02:44:34;1.00;;;0.90;;
65037;SDS011;51605;47.040;15.294;2022-07-04T02:46:59;0.87;;;0.87;;
65037;SDS011;51605;47.040;15.294;2022-07-04T02:49:25;1.00;;;0.90;;
65037;SDS011;51605;47.040;15.294;2022-07-04T02:51:52;0.75;;;0.73;;
65037;SDS011;51605;47.040;15.294;2022-07-04T02:54:17;0.80;;;0.80;;
65037;SDS011;51605;47.040;15.294;2022-07-04T02:56:43;0.90;;;0.90;;
65037;SDS011;51605;47.040;15.294;2022-07-04T02:59:09;1.02;;;0.88;;
65037;SDS011;51605;47.040;15.294;2022-07-04T03:01:34;0.75;;;0.75;;
65037;SDS011;51605;47.040;15.294;2022-07-04T03:04:00;0.70;;;0.70;;
65037;SDS011;51605;47.040;15.294;2022-07-04T03:06:27;1.35;;;0.80;;
65037;SDS011;51605;47.040;15.294;2022-07-04T03:08:53;1.92;;;0.90;;
65037;SDS011;51605;47.040;15.294;2022-07-04T03:11:19;0.97;;;0.80;;
65037;SDS011;51605;47.040;15.294;2022-07-04T03:13:45;1.10;;;0.90;;
65037;SDS011;51605;47.040;15.294;2022-07-04T03:16:11;0.80;;;0.80;;
65037;SDS011;51605;47.040;15.294;2022-07-04T03:18:37;0.98;;;0.90;;
65037;SDS011;51605;47.040;15.294;2022-07-04T03:21:03;2.53;;;0.90;;
65037;SDS011;51605;47.040;15.294;2022-07-04T03:23:33;0.90;;;0.90;;
65037;SDS011;51605;47.040;15.294;2022-07-04T03:25:59;1.13;;;1.00;;
65037;SDS011;51605;47.040;15.294;2022-07-04T03:28:26;1.20;;;0.90;;
65037;SDS011;51605;47.040;15.294;2022-07-04T03:30:52;0.80;;;0.80;;
65037;SDS011;51605;47.040;15.294;2022-07-04T03:33:17;1.40;;;1.00;;
65037;SDS011;51605;47.040;15.294;2022-07-04T03:35:43;1.27;;;0.77;;
65037;SDS011;51605;47.040;15.294;2022-07-04T03:38:09;0.82;;;0.80;;
65037;SDS011;51605;47.040;15.294;2022-07-04T03:40:35;0.80;;;0.80;;
65037;SDS011;51605;47.040;15.294;2022-07-04T03:43:01;0.80;;;0.80;;
65037;SDS011;51605;47.040;15.294;2022-07-04T03:45:28;1.08;;;0.80;;
65037;SDS011;51605;47.040;15.294;2022-07-04T03:47:54;1.63;;;0.80;;
65037;SDS011;51605;47.040;15.294;2022-07-04T03:50:21;1.10;;;0.80;;
65037;SDS011;51605;47.040;15.294;2022-07-04T03:52:47;0.88;;;0.88;;
65037;SDS011;51605;47.040;15.294;2022-07-04T03:55:13;1.13;;;0.93;;
65037;SDS011;51605;47.040;15.294;2022-07-04T03:57:39;0.73;;;0.73;;
65037;SDS011;51605;47.040;15.294;2022-07-04T04:00:05;0.93;;;0.90;;
65037;SDS011;51605;47.040;15.294;2022-07-04T04:02:32;0.80;;;0.80;;
65037;SDS011;51605;47.040;15.294;2022-07-04T04:04:58;0.90;;;0.90;;
65037;SDS011;51605;47.040;15.294;2022-07-04T04:07:43;1.50;;;0.90;;
65037;SDS011;51605;47.040;15.294;2022-07-04T04:10:09;1.17;;;0.85;;
65037;SDS011;51605;47.040;15.294;2022-07-04T04:12:35;1.00;;;0.90;;
65037;SDS011;51605;47.040;15.294;2022-07-04T04:15:01;1.02;;;0.80;;
65037;SDS011;51605;47.040;15.294;2022-07-04T04:17:26;0.93;;;0.90;;
65037;SDS011;51605;47.040;15.294;2022-07-04T04:19:52;0.98;;;0.90;;
65037;SDS011;51605;47.040;15.294;2022-07-04T04:22:18;1.30;;;0.90;;
65037;SDS011;51605;47.040;15.294;2022-07-04T04:24:43;1.55;;;0.95;;
65037;SDS011;51605;47.040;15.294;2022-07-04T04:27:09;1.10;;;1.00;;
65037;SDS011;51605;47.040;15.294;2022-07-04T04:29:35;1.33;;;1.00;;
65037;SDS011;51605;47.040;15.294;2022-07-04T04:32:00;1.13;;;0.87;;
65037;SDS011;51605;47.040;15.294;2022-07-04T04:34:26;1.10;;;1.00;;
65037;SDS011;51605;47.040;15.294;2022-07-04T04:36:52;0.97;;;0.90;;
65037;SDS011;51605;47.040;15.294;2022-07-04T04:39:18;0.90;;;0.90;;
65037;SDS011;51605;47.040;15.294;2022-07-04T04:41:43;0.90;;;0.90;;
65037;SDS011;51605;47.040;15.294;2022-07-04T04:44:09;1.00;;;0.90;;
65037;SDS011;51605;47.040;15.294;2022-07-04T04:46:34;0.93;;;0.70;;
65037;SDS011;51605;47.040;15.294;2022-07-04T04:49:00;1.17;;;0.80;;
65037;SDS011;51605;47.040;15.294;2022-07-04T04:51:26;1.17;;;1.05;;
65037;SDS011;51605;47.040;15.294;2022-07-04T04:53:51;1.02;;;0.93;;
65037;SDS011;51605;47.040;15.294;2022-07-04T04:56:17;1.02;;;1.02;;
65037;SDS011;51605;47.040;15.294;2022-07-04T04:58:43;0.80;;;0.80;;
65037;SDS011;51605;47.040;15.294;2022-07-04T05:01:08;0.97;;;0.93;;
65037;SDS011;51605;47.040;15.294;2022-07-04T05:03:34;1.13;;;0.93;;
65037;SDS011;51605;47.040;15.294;2022-07-04T05:06:00;0.90;;;0.90;;
65037;SDS011;51605;47.040;15.294;2022-07-04T05:08:25;1.17;;;0.80;;
65037;SDS011;51605;47.040;15.294;2022-07-04T05:10:51;1.10;;;1.00;;
65037;SDS011;51605;47.040;15.294;2022-07-04T05:13:17;0.80;;;0.80;;
65037;SDS011;51605;47.040;15.294;2022-07-04T05:15:43;0.90;;;0.90;;
65037;SDS011;51605;47.040;15.294;2022-07-04T05:18:09;1.05;;;0.80;;
65037;SDS011;51605;47.040;15.294;2022-07-04T05:20:35;1.23;;;1.10;;
65037;SDS011;51605;47.040;15.294;2022-07-04T05:23:01;1.20;;;0.80;;
65037;SDS011;51605;47.040;15.294;2022-07-04T05:25:26;0.90;;;0.90;;
65037;SDS011;51605;47.040;15.294;2022-07-04T05:27:52;0.90;;;0.77;;
65037;SDS011;51605;47.040;15.294;2022-07-04T05:30:18;0.90;;;0.90;;
65037;SDS011;51605;47.040;15.294;2022-07-04T05:32:43;0.80;;;0.80;;
65037;SDS011;51605;47.040;15.294;2022-07-04T05:35:09;0.90;;;0.90;;
65037;SDS011;51605;47.040;15.294;2022-07-04T05:37:35;1.10;;;1.00;;
65037;SDS011;51605;47.040;15.294;2022-07-04T05:40:01;0.85;;;0.80;;
65037;SDS011;51605;47.040;15.294;2022-07-04T05:42:30;1.85;;;0.90;;
65037;SDS011;51605;47.040;15.294;2022-07-04T05:44:56;2.00;;;1.00;;
65037;SDS011;51605;47.040;15.294;2022-07-04T05:47:21;1.00;;;0.90;;
65037;SDS011;51605;47.040;15.294;2022-07-04T05:49:49;0.98;;;0.90;;
65037;SDS011;51605;47.040;15.294;2022-07-04T05:52:15;0.70;;;0.70;;
65037;SDS011;51605;47.040;15.294;2022-07-04T05:54:41;1.30;;;0.90;;
65037;SDS011;51605;47.040;15.294;2022-07-04T05:57:07;0.93;;;0.88;;
65037;SDS011;51605;47.040;15.294;2022-07-04T05:59:32;0.80;;;0.80;;
65037;SDS011;51605;47.040;15.294;2022-07-04T06:01:58;0.90;;;0.90;;
65037;SDS011;51605;47.040;15.294;2022-07-04T06:04:24;1.00;;;0.90;;
65037;SDS011;51605;47.040;15.294;2022-07-04T06:06:50;1.25;;;0.90;;
65037;SDS011;51605;47.040;15.294;2022-07-04T06:09:16;1.47;;;0.97;;
65037;SDS011;51605;47.040;15.294;2022-07-04T06:11:41;0.90;;;0.90;;
65037;SDS011;51605;47.040;15.294;2022-07-04T06:14:07;1.05;;;0.93;;
65037;SDS011;51605;47.040;15.294;2022-07-04T06:16:33;0.93;;;0.80;;
65037;SDS011;51605;47.040;15.294;2022-07-04T06:18:58;1.17;;;0.90;;
65037;SDS011;51605;47.040;15.294;2022-07-04T06:21:24;1.40;;;0.93;;
65037;SDS011;51605;47.040;15.294;2022-07-04T06:23:50;1.00;;;0.80;;
65037;SDS011;51605;47.040;15.294;2022-07-04T06:26:15;1.38;;;0.77;;
65037;SDS011;51605;47.040;15.294;2022-07-04T06:28:41;0.80;;;0.80;;
65037;SDS011;51605;47.040;15.294;2022-07-04T06:31:07;1.40;;;1.20;;
65037;SDS011;51605;47.040;15.294;2022-07-04T06:33:33;2.78;;;0.80;;
65037;SDS011;51605;47.040;15.294;2022-07-04T06:36:18;1.13;;;0.93;;
65037;SDS011;51605;47.040;15.294;2022-07-04T06:38:44;1.00;;;1.00;;
65037;SDS011;51605;47.040;15.294;2022-07-04T06:41:09;0.80;;;0.80;;
65037;SDS011;51605;47.040;15.294;2022-07-04T06:43:36;1.70;;;1.02;;
65037;SDS011;51605;47.040;15.294;2022-07-04T06:46:01;2.27;;;0.93;;
65037;SDS011;51605;47.040;15.294;2022-07-04T06:48:27;3.17;;;0.90;;
65037;SDS011;51605;47.040;15.294;2022-07-04T06:50:54;2.83;;;0.90;;
65037;SDS011;51605;47.040;15.294;2022-07-04T06:53:20;2.43;;;1.00;;
65037;SDS011;51605;47.040;15.294;2022-07-04T06:55:45;3.80;;;1.00;;
65037;SDS011;51605;47.040;15.294;2022-07-04T06:58:11;1.43;;;1.10;;
65037;SDS011;51605;47.040;15.294;2022-07-04T07:00:40;1.10;;;1.00;;
65037;SDS011;51605;47.040;15.294;2022-07-04T07:03:06;1.98;;;1.10;;
65037;SDS011;51605;47.040;15.294;2022-07-04T07:05:32;1.77;;;1.00;;
65037;SDS011;51605;47.040;15.294;2022-07-04T07:07:59;2.30;;;1.00;;
65037;SDS011;51605;47.040;15.294;2022-07-04T07:10:25;3.53;;;0.98;;
65037;SDS011;51605;47.040;15.294;2022-07-04T07:12:50;3.03;;;1.15;;
65037;SDS011;51605;47.040;15.294;2022-07-04T07:15:16;3.40;;;1.20;;
65037;SDS011;51605;47.040;15.294;2022-07-04T07:17:43;3.75;;;1.10;;
65037;SDS011;51605;47.040;15.294;2022-07-04T07:20:09;2.10;;;1.13;;
65037;SDS011;51605;47.040;15.294;2022-07-04T07:22:35;3.37;;;1.20;;
65037;SDS011;51605;47.040;15.294;2022-07-04T07:25:01;2.45;;;1.13;;
65037;SDS011;51605;47.040;15.294;2022-07-04T07:27:27;2.57;;;1.27;;
65037;SDS011;51605;47.040;15.294;2022-07-04T07:29:53;2.13;;;0.90;;
65037;SDS011;51605;47.040;15.294;2022-07-04T07:32:18;2.38;;;1.10;;
65037;SDS011;51605;47.040;15.294;2022-07-04T07:34:44;3.50;;;1.00;;
65037;SDS011;51605;47.040;15.294;2022-07-04T07:37:10;4.82;;;1.27;;
65037;SDS011;51605;47.040;15.294;2022-07-04T07:39:35;2.55;;;1.50;;
65037;SDS011;51605;47.040;15.294;2022-07-04T07:42:01;1.27;;;1.00;;
65037;SDS011;51605;47.040;15.294;2022-07-04T07:44:27;1.98;;;1.10;;
65037;SDS011;51605;47.040;15.294;2022-07-04T07:46:52;1.50;;;1.13;;
65037;SDS011;51605;47.040;15.294;2022-07-04T07:49:18;2.97;;;1.13;;
65037;SDS011;51605;47.040;15.294;2022-07-04T07:51:44;1.90;;;1.20;;
65037;SDS011;51605;47.040;15.294;2022-07-04T07:54:09;1.80;;;1.00;;
65037;SDS011;51605;47.040;15.294;2022-07-04T07:56:35;3.17;;;1.20;;
65037;SDS011;51605;47.040;15.294;2022-07-04T07:59:01;2.85;;;1.13;;
65037;SDS011;51605;47.040;15.294;2022-07-04T08:01:27;4.03;;;1.45;;
65037;SDS011;51605;47.040;15.294;2022-07-04T08:03:52;1.95;;;1.10;;
65037;SDS011;51605;47.040;15.294;2022-07-04T08:06:37;2.88;;;1.30;;
65037;SDS011;51605;47.040;15.294;2022-07-04T08:09:02;2.45;;;1.30;;
65037;SDS011;51605;47.040;15.294;2022-07-04T08:11:28;3.45;;;1.17;;
65037;SDS011;51605;47.040;15.294;2022-07-04T08:13:54;2.55;;;1.08;;
65037;SDS011;51605;47.040;15.294;2022-07-04T08:16:20;2.25;;;1.10;;
65037;SDS011;51605;47.040;15.294;2022-07-04T08:18:46;8.07;;;1.50;;
65037;SDS011;51605;47.040;15.294;2022-07-04T08:21:12;2.78;;;1.30;;
65037;SDS011;51605;47.040;15.294;2022-07-04T08:23:38;3.58;;;1.23;;
65037;SDS011;51605;47.040;15.294;2022-07-04T08:26:04;1.17;;;0.98;;
65037;SDS011;51605;47.040;15.294;2022-07-04T08:28:30;1.97;;;1.20;;
65037;SDS011;51605;47.040;15.294;2022-07-04T08:30:56;3.33;;;1.20;;
65037;SDS011;51605;47.040;15.294;2022-07-04T08:33:22;2.75;;;1.17;;
65037;SDS011;51605;47.040;15.294;2022-07-04T08:35:49;3.78;;;1.17;;
65037;SDS011;51605;47.040;15.294;2022-07-04T08:38:15;1.25;;;1.10;;
65037;SDS011;51605;47.040;15.294;2022-07-04T08:40:42;2.53;;;1.25;;
65037;SDS011;51605;47.040;15.294;2022-07-04T08:43:09;4.07;;;1.10;;
65037;SDS011;51605;47.040;15.294;2022-07-04T08:45:38;2.13;;;1.02;;
65037;SDS011;51605;47.040;15.294;2022-07-04T08:48:06;3.33;;;1.10;;
65037;SDS011;51605;47.040;15.294;2022-07-04T08:50:49;2.30;;;1.10;;
65037;SDS011;51605;47.040;15.294;2022-07-04T08:53:18;2.95;;;1.00;;
65037;SDS011;51605;47.040;15.294;2022-07-04T08:55:45;2.00;;;1.13;;
65037;SDS011;51605;47.040;15.294;2022-07-04T08:58:29;1.75;;;1.10;;
65037;SDS011;51605;47.040;15.294;2022-07-04T09:01:00;1.77;;;1.10;;
65037;SDS011;51605;47.040;15.294;2022-07-04T09:03:30;2.22;;;1.20;;
65037;SDS011;51605;47.040;15.294;2022-07-04T09:05:56;2.17;;;1.17;;
65037;SDS011;51605;47.040;15.294;2022-07-04T09:08:22;2.63;;;1.20;;
65037;SDS011;51605;47.040;15.294;2022-07-04T09:10:49;1.75;;;1.00;;
65037;SDS011;51605;47.040;15.294;2022-07-04T09:13:16;2.35;;;1.10;;
65037;SDS011;51605;47.040;15.294;2022-07-04T09:15:43;1.92;;;1.30;;
65037;SDS011;51605;47.040;15.294;2022-07-04T09:18:20;1.40;;;1.10;;
65037;SDS011;51605;47.040;15.294;2022-07-04T09:20:48;2.15;;;1.20;;
65037;SDS011;51605;47.040;15.294;2022-07-04T09:23:17;1.57;;;1.10;;
65037;SDS011;51605;47.040;15.294;2022-07-04T09:25:48;2.40;;;1.00;;
65037;SDS011;51605;47.040;15.294;2022-07-04T09:28:30;2.20;;;1.17;;
65037;SDS011;51605;47.040;15.294;2022-07-04T09:30:55;2.13;;;1.10;;
65037;SDS011;51605;47.040;15.294;2022-07-04T09:33:23;1.85;;;1.10;;
65037;SDS011;51605;47.040;15.294;2022-07-04T09:36:20;1.73;;;1.10;;
65037;SDS011;51605;47.040;15.294;2022-07-04T09:39:03;3.17;;;1.17;;
65037;SDS011;51605;47.040;15.294;2022-07-04T09:41:50;4.15;;;1.20;;
65037;SDS011;51605;47.040;15.294;2022-07-04T09:44:17;1.55;;;1.10;;
65037;SDS011;51605;47.040;15.294;2022-07-04T09:46:43;3.77;;;1.20;;
65037;SDS011;51605;47.040;15.294;2022-07-04T09:49:13;1.83;;;1.08;;
65037;SDS011;51605;47.040;15.294;2022-07-04T09:54:15;3.72;;;1.10;;
65037;SDS011;51605;47.040;15.294;2022-07-04T09:56:51;1.75;;;1.02;;
65037;SDS011;51605;47.040;15.294;2022-07-04T09:59:18;1.90;;;1.20;;
65037;SDS011;51605;47.040;15.294;2022-07-04T10:01:44;2.08;;;1.10;;
65037;SDS011;51605;47.040;15.294;2022-07-04T10:04:10;1.97;;;1.10;;
65037;SDS011;51605;47.040;15.294;2022-07-04T10:06:38;4.90;;;1.20;;
65037;SDS011;51605;47.040;15.294;2022-07-04T10:09:06;2.42;;;1.00;;
65037;SDS011;51605;47.040;15.294;2022-07-04T10:11:34;5.22;;;1.13;;
65037;SDS011;51605;47.040;15.294;2022-07-04T10:14:02;4.38;;;1.67;;
65037;SDS011;51605;47.040;15.294;2022-07-04T10:16:29;1.40;;;1.10;;
65037;SDS011;51605;47.040;15.294;2022-07-04T10:18:56;4.30;;;1.20;;
65037;SDS011;51605;47.040;15.294;2022-07-04T10:21:22;3.90;;;1.20;;
65037;SDS011;51605;47.040;15.294;2022-07-04T10:23:49;3.20;;;0.90;;
65037;SDS011;51605;47.040;15.294;2022-07-04T10:26:20;1.80;;;1.02;;
65037;SDS011;51605;47.040;15.294;2022-07-04T10:28:47;5.25;;;1.20;;
65037;SDS011;51605;47.040;15.294;2022-07-04T10:31:16;4.35;;;1.25;;
65037;SDS011;51605;47.040;15.294;2022-07-04T10:33:42;1.85;;;1.05;;
65037;SDS011;51605;47.040;15.294;2022-07-04T10:41:14;4.85;;;1.17;;
65037;SDS011;51605;47.040;15.294;2022-07-04T10:43:53;2.47;;;1.10;;
65037;SDS011;51605;47.040;15.294;2022-07-04T11:04:56;3.45;;;0.98;;
65037;SDS011;51605;47.040;15.294;2022-07-04T11:17:50;2.15;;;1.17;;
65037;SDS011;51605;47.040;15.294;2022-07-04T11:20:17;3.83;;;1.30;;
65037;SDS011;51605;47.040;15.294;2022-07-04T11:22:43;3.50;;;1.63;;
65037;SDS011;51605;47.040;15.294;2022-07-04T11:25:12;2.93;;;1.50;;
65037;SDS011;51605;47.040;15.294;2022-07-04T11:27:38;5.18;;;1.60;;
65037;SDS011;51605;47.040;15.294;2022-07-04T11:30:04;4.07;;;1.50;;
65037;SDS011;51605;47.040;15.294;2022-07-04T11:32:32;3.35;;;1.60;;
65037;SDS011;51605;47.040;15.294;2022-07-04T11:34:59;3.20;;;1.73;;
65037;SDS011;51605;47.040;15.294;2022-07-04T11:37:25;2.47;;;1.80;;
65037;SDS011;51605;47.040;15.294;2022-07-04T11:39:54;4.60;;;1.80;;
65037;SDS011;51605;47.040;15.294;2022-07-04T11:45:58;2.80;;;1.90;;
65037;SDS011;51605;47.040;15.294;2022-07-04T11:48:37;3.63;;;2.00;;
65037;SDS011;51605;47.040;15.294;2022-07-04T11:51:03;5.03;;;2.03;;
65037;SDS011;51605;47.040;15.294;2022-07-04T11:53:40;3.75;;;1.80;;
65037;SDS011;51605;47.040;15.294;2022-07-04T11:56:05;5.57;;;2.00;;
65037;SDS011;51605;47.040;15.294;2022-07-04T11:58:41;4.47;;;2.23;;
65037;SDS011;51605;47.040;15.294;2022-07-04T12:01:08;4.60;;;2.40;;
65037;SDS011;51605;47.040;15.294;2022-07-04T12:06:04;3.28;;;2.13;;
65037;SDS011;51605;47.040;15.294;2022-07-04T12:08:33;4.10;;;2.20;;
65037;SDS011;51605;47.040;15.294;2022-07-04T12:10:59;4.23;;;2.20;;
65037;SDS011;51605;47.040;15.294;2022-07-04T12:13:24;4.90;;;2.20;;
65037;SDS011;51605;47.040;15.294;2022-07-04T12:15:50;3.93;;;2.13;;
65037;SDS011;51605;47.040;15.294;2022-07-04T12:18:28;3.67;;;2.30;;
65037;SDS011;51605;47.040;15.294;2022-07-04T12:21:10;2.90;;;2.22;;
65037;SDS011;51605;47.040;15.294;2022-07-04T12:23:40;5.72;;;2.67;;
65037;SDS011;51605;47.040;15.294;2022-07-04T12:26:07;5.07;;;2.45;;
65037;SDS011;51605;47.040;15.294;2022-07-04T12:28:35;3.30;;;2.40;;
65037;SDS011;51605;47.040;15.294;2022-07-04T12:31:03;6.40;;;2.40;;
65037;SDS011;51605;47.040;15.294;2022-07-04T12:33:29;5.18;;;2.53;;
65037;SDS011;51605;47.040;15.294;2022-07-04T12:35:56;3.83;;;2.33;;
65037;SDS011;51605;47.040;15.294;2022-07-04T12:46:08;7.10;;;2.50;;
65037;SDS011;51605;47.040;15.294;2022-07-04T12:48:35;3.88;;;2.42;;
65037;SDS011;51605;47.040;15.294;2022-07-04T12:51:15;3.10;;;2.10;;
65037;SDS011;51605;47.040;15.294;2022-07-04T12:53:42;3.78;;;2.30;;
65037;SDS011;51605;47.040;15.294;2022-07-04T12:56:09;4.57;;;2.50;;
65037;SDS011;51605;47.040;15.294;2022-07-04T12:58:51;5.35;;;2.28;;
65037;SDS011;51605;47.040;15.294;2022-07-04T13:01:17;6.13;;;2.42;;
65037;SDS011;51605;47.040;15.294;2022-07-04T13:03:42;5.00;;;2.40;;
65037;SDS011;51605;47.040;15.294;2022-07-04T13:06:08;4.20;;;2.47;;
65037;SDS011;51605;47.040;15.294;2022-07-04T13:08:34;3.50;;;2.30;;
65037;SDS011;51605;47.040;15.294;2022-07-04T13:10:59;4.33;;;2.37;;
65037;SDS011;51605;47.040;15.294;2022-07-04T13:13:44;4.72;;;2.25;;
65037;SDS011;51605;47.040;15.294;2022-07-04T13:16:09;4.07;;;2.30;;
65037;SDS011;51605;47.040;15.294;2022-07-04T13:18:35;5.10;;;2.57;;
65037;SDS011;51605;47.040;15.294;2022-07-04T13:21:01;3.90;;;2.07;;
65037;SDS011;51605;47.040;15.294;2022-07-04T13:23:26;3.33;;;2.20;;
65037;SDS011;51605;47.040;15.294;2022-07-04T13:25:52;3.33;;;2.22;;
65037;SDS011;51605;47.040;15.294;2022-07-04T13:28:18;2.73;;;2.07;;
65037;SDS011;51605;47.040;15.294;2022-07-04T13:30:43;4.90;;;2.10;;
65037;SDS011;51605;47.040;15.294;2022-07-04T13:33:09;4.23;;;2.40;;
65037;SDS011;51605;47.040;15.294;2022-07-04T13:35:35;4.28;;;2.50;;
65037;SDS011;51605;47.040;15.294;2022-07-04T13:38:02;5.10;;;2.22;;
65037;SDS011;51605;47.040;15.294;2022-07-04T13:40:27;3.53;;;2.35;;
65037;SDS011;51605;47.040;15.294;2022-07-04T13:42:54;2.90;;;2.08;;
65037;SDS011;51605;47.040;15.294;2022-07-04T13:45:23;4.25;;;2.40;;
65037;SDS011;51605;47.040;15.294;2022-07-04T13:47:52;3.88;;;2.20;;
65037;SDS011;51605;47.040;15.294;2022-07-04T13:50:19;4.00;;;2.10;;
65037;SDS011;51605;47.040;15.294;2022-07-04T13:52:45;3.47;;;2.10;;
65037;SDS011;51605;47.040;15.294;2022-07-04T13:55:11;4.10;;;2.40;;
65037;SDS011;51605;47.040;15.294;2022-07-04T13:57:37;2.67;;;2.07;;
65037;SDS011;51605;47.040;15.294;2022-07-04T14:00:03;3.10;;;2.20;;
65037;SDS011;51605;47.040;15.294;2022-07-04T14:02:30;2.60;;;2.03;;
65037;SDS011;51605;47.040;15.294;2022-07-04T14:04:56;3.63;;;2.25;;
65037;SDS011;51605;47.040;15.294;2022-07-04T14:07:21;6.33;;;2.20;;
65037;SDS011;51605;47.040;15.294;2022-07-04T14:09:47;3.00;;;2.00;;
65037;SDS011;51605;47.040;15.294;2022-07-04T14:12:13;3.40;;;2.00;;
65037;SDS011;51605;47.040;15.294;2022-07-04T14:14:39;3.17;;;1.95;;
65037;SDS011;51605;47.040;15.294;2022-07-04T14:17:05;3.53;;;2.10;;
65037;SDS011;51605;47.040;15.294;2022-07-04T14:19:31;2.73;;;1.83;;
65037;SDS011;51605;47.040;15.294;2022-07-04T14:22:00;2.70;;;1.90;;
65037;SDS011;51605;47.040;15.294;2022-07-04T14:24:25;2.10;;;1.80;;
65037;SDS011;51605;47.040;15.294;2022-07-04T14:26:51;3.53;;;2.10;;
65037;SDS011;51605;47.040;15.294;2022-07-04T14:29:18;3.28;;;1.95;;
65037;SDS011;51605;47.040;15.294;2022-07-04T14:31:44;2.58;;;1.98;;
65037;SDS011;51605;47.040;15.294;2022-07-04T14:34:10;3.57;;;2.30;;
65037;SDS011;51605;47.040;15.294;2022-07-04T14:36:37;3.15;;;2.00;;
65037;SDS011;51605;47.040;15.294;2022-07-04T14:39:03;3.05;;;2.03;;
65037;SDS011;51605;47.040;15.294;2022-07-04T14:41:30;3.63;;;2.00;;
65037;SDS011;51605;47.040;15.294;2022-07-04T14:43:56;3.60;;;2.17;;
65037;SDS011;51605;47.040;15.294;2022-07-04T14:46:22;2.60;;;1.87;;
65037;SDS011;51605;47.040;15.294;2022-07-04T14:48:48;3.20;;;1.50;;
65037;SDS011;51605;47.040;15.294;2022-07-04T14:51:14;2.83;;;1.80;;
65037;SDS011;51605;47.040;15.294;2022-07-04T14:53:39;5.63;;;2.20;;
65037;SDS011;51605;47.040;15.294;2022-07-04T14:56:05;2.43;;;1.97;;
65037;SDS011;51605;47.040;15.294;2022-07-04T14:58:31;2.97;;;1.77;;
65037;SDS011;51605;47.040;15.294;2022-07-04T15:00:56;3.00;;;1.93;;
65037;SDS011;51605;47.040;15.294;2022-07-04T15:03:22;3.07;;;2.10;;
65037;SDS011;51605;47.040;15.294;2022-07-04T15:05:48;3.63;;;2.10;;
65037;SDS011;51605;47.040;15.294;2022-07-04T15:08:14;3.72;;;1.90;;
65037;SDS011;51605;47.040;15.294;2022-07-04T15:10:40;3.20;;;2.00;;
65037;SDS011;51605;47.040;15.294;2022-07-04T15:13:06;2.90;;;1.90;;
65037;SDS011;51605;47.040;15.294;2022-07-04T15:15:31;2.83;;;1.90;;
65037;SDS011;51605;47.040;15.294;2022-07-04T15:17:57;3.03;;;2.00;;
65037;SDS011;51605;47.040;15.294;2022-07-04T15:20:23;2.30;;;1.80;;
65037;SDS011;51605;47.040;15.294;2022-07-04T15:23:08;3.42;;;2.10;;
65037;SDS011;51605;47.040;15.294;2022-07-04T15:25:52;3.00;;;2.00;;
65037;SDS011;51605;47.040;15.294;2022-07-04T15:28:18;3.05;;;1.92;;